createdAt,value
2023-05-21T00:00:04.602Z,953.26
2023-05-21T00:00:16.565Z,953.26
2023-05-21T00:00:27.564Z,953.25
2023-05-21T00:00:38.527Z,953.25
2023-05-21T00:00:49.607Z,953.26
2023-05-21T00:01:00.581Z,953.26
2023-05-21T00:01:12.557Z,953.26
2023-05-21T00:01:23.540Z,953.26
2023-05-21T00:01:34.621Z,953.26
2023-05-21T00:01:46.580Z,953.26
2023-05-21T00:01:57.553Z,953.26
2023-05-21T00:02:08.537Z,953.26
2023-05-21T00:02:19.533Z,953.26
2023-05-21T00:02:30.624Z,953.26
2023-05-21T00:02:42.590Z,953.26
2023-05-21T00:02:53.704Z,953.26
2023-05-21T00:03:05.683Z,953.25
2023-05-21T00:03:17.715Z,953.24
2023-05-21T00:03:28.675Z,953.23
2023-05-21T00:03:40.835Z,953.22
2023-05-21T00:03:52.720Z,953.22
2023-05-21T00:04:03.680Z,953.21
2023-05-21T00:04:15.575Z,953.22
2023-05-21T00:04:26.574Z,953.22
2023-05-21T00:04:37.562Z,953.23
2023-05-21T00:04:48.542Z,953.24
2023-05-21T00:04:59.617Z,953.23
2023-05-21T00:05:14.381Z,953.22
2023-05-21T00:05:23.560Z,953.21
2023-05-21T00:05:34.914Z,953.21
2023-05-21T00:05:45.544Z,953.21
2023-05-21T00:05:56.609Z,953.21
2023-05-21T00:06:07.549Z,953.21
2023-05-21T00:06:18.626Z,953.22
2023-05-21T00:06:30.683Z,953.23
2023-05-21T00:06:42.602Z,953.24
2023-05-21T00:06:53.589Z,953.24
2023-05-21T00:07:05.550Z,953.24
2023-05-21T00:07:16.528Z,953.24
2023-05-21T00:07:27.601Z,953.25
2023-05-21T00:07:38.580Z,953.25
2023-05-21T00:07:49.566Z,953.25
2023-05-21T00:08:00.536Z,953.24
2023-05-21T00:08:11.619Z,953.24
2023-05-21T00:08:23.555Z,953.24
2023-05-21T00:08:34.533Z,953.24
2023-05-21T00:08:45.521Z,953.24
2023-05-21T00:08:56.617Z,953.24
2023-05-21T00:09:08.552Z,953.23
2023-05-21T00:09:19.548Z,953.23
2023-05-21T00:09:30.622Z,953.22
2023-05-21T00:09:42.568Z,953.20
2023-05-21T00:09:53.556Z,953.20
2023-05-21T00:10:04.577Z,953.19
2023-05-21T00:10:15.558Z,953.18
2023-05-21T00:10:26.539Z,953.18
2023-05-21T00:10:37.613Z,953.18
2023-05-21T00:10:48.589Z,953.18
2023-05-21T00:10:59.582Z,953.18
2023-05-21T00:11:10.549Z,953.19
2023-05-21T00:11:21.533Z,953.19
2023-05-21T00:11:32.618Z,953.20
2023-05-21T00:11:44.558Z,953.20
2023-05-21T00:11:55.529Z,953.19
2023-05-21T00:12:06.616Z,953.19
2023-05-21T00:12:18.596Z,953.18
2023-05-21T00:12:29.575Z,953.18
2023-05-21T00:12:40.556Z,953.17
2023-05-21T00:12:52.574Z,953.16
2023-05-21T00:13:03.578Z,953.16
2023-05-21T00:13:14.557Z,953.15
2023-05-21T00:13:25.567Z,953.15
2023-05-21T00:13:36.566Z,953.15
2023-05-21T00:13:47.553Z,953.15
2023-05-21T00:13:58.534Z,953.14
2023-05-21T00:14:09.622Z,953.14
2023-05-21T00:14:21.572Z,953.14
2023-05-21T00:14:32.544Z,953.14
2023-05-21T00:14:43.625Z,953.14
2023-05-21T00:14:55.587Z,953.14
2023-05-21T00:15:06.597Z,953.14
2023-05-21T00:15:17.581Z,953.15
2023-05-21T00:15:28.568Z,953.16
2023-05-21T00:15:39.550Z,953.16
2023-05-21T00:15:50.535Z,953.17
2023-05-21T00:16:01.639Z,953.17
2023-05-21T00:16:13.630Z,953.17
2023-05-21T00:16:24.588Z,953.17
2023-05-21T00:16:35.603Z,953.18
2023-05-21T00:16:46.649Z,953.18
2023-05-21T00:16:57.581Z,953.17
2023-05-21T00:17:08.553Z,953.17
2023-05-21T00:17:19.530Z,953.18
2023-05-21T00:17:30.684Z,953.18
2023-05-21T00:17:42.593Z,953.18
2023-05-21T00:17:53.638Z,953.18
2023-05-21T00:18:05.645Z,953.18
2023-05-21T00:18:16.584Z,953.18
2023-05-21T00:18:28.572Z,953.17
2023-05-21T00:18:39.566Z,953.17
2023-05-21T00:18:50.585Z,953.16
2023-05-21T00:19:01.636Z,953.16
2023-05-21T00:19:13.605Z,953.16
2023-05-21T00:19:25.651Z,953.16
2023-05-21T00:19:37.523Z,953.15
2023-05-21T00:19:48.593Z,953.15
2023-05-21T00:19:59.575Z,953.15
2023-05-21T00:20:10.563Z,953.15
2023-05-21T00:20:21.539Z,953.14
2023-05-21T00:20:32.602Z,953.14
2023-05-21T00:20:43.566Z,953.13
2023-05-21T00:20:54.554Z,953.12
2023-05-21T00:21:05.545Z,953.12
2023-05-21T00:21:16.623Z,953.10
2023-05-21T00:21:28.600Z,953.09
2023-05-21T00:21:39.584Z,953.08
2023-05-21T00:21:50.603Z,953.07
2023-05-21T00:22:02.556Z,953.07
2023-05-21T00:22:13.534Z,953.08
2023-05-21T00:22:24.603Z,953.08
2023-05-21T00:22:35.579Z,953.09
2023-05-21T00:22:46.576Z,953.08
2023-05-21T00:22:57.682Z,953.08
2023-05-21T00:23:08.553Z,953.08
2023-05-21T00:23:19.550Z,953.08
2023-05-21T00:23:30.531Z,953.09
2023-05-21T00:23:41.608Z,953.09
2023-05-21T00:23:52.582Z,953.09
2023-05-21T00:24:03.611Z,953.10
2023-05-21T00:24:15.561Z,953.10
2023-05-21T00:24:26.557Z,953.10
2023-05-21T00:24:37.535Z,953.09
2023-05-21T00:24:48.612Z,953.09
2023-05-21T00:25:00.581Z,953.08
2023-05-21T00:25:11.578Z,953.08
2023-05-21T00:25:22.547Z,953.07
2023-05-21T00:25:33.673Z,953.08
2023-05-21T00:25:45.594Z,953.07
2023-05-21T00:25:56.567Z,953.07
2023-05-21T00:26:07.548Z,953.06
2023-05-21T00:26:18.624Z,953.05
2023-05-21T00:26:30.570Z,953.06
2023-05-21T00:26:41.554Z,953.06
2023-05-21T00:26:52.525Z,953.06
2023-05-21T00:27:03.591Z,953.06
2023-05-21T00:27:14.577Z,953.06
2023-05-21T00:27:25.551Z,953.06
2023-05-21T00:27:36.538Z,953.06
2023-05-21T00:27:47.620Z,953.05
2023-05-21T00:27:59.580Z,953.05
2023-05-21T00:28:10.565Z,953.05
2023-05-21T00:28:21.565Z,953.05
2023-05-21T00:28:32.521Z,953.05
2023-05-21T00:28:43.609Z,953.05
2023-05-21T00:28:54.578Z,953.04
2023-05-21T00:29:05.563Z,953.04
2023-05-21T00:29:16.567Z,953.04
2023-05-21T00:29:27.563Z,953.05
2023-05-21T00:29:38.552Z,953.05
2023-05-21T00:29:49.535Z,953.05
2023-05-21T00:30:00.623Z,953.05
2023-05-21T00:30:12.564Z,953.04
2023-05-21T00:30:23.549Z,953.04
2023-05-21T00:30:34.568Z,953.05
2023-05-21T00:30:45.536Z,953.05
2023-05-21T00:30:56.617Z,953.05
2023-05-21T00:31:08.618Z,953.04
2023-05-21T00:31:20.661Z,953.05
2023-05-21T00:31:31.582Z,953.05
2023-05-21T00:31:42.639Z,953.05
2023-05-21T00:31:54.627Z,953.05
2023-05-21T00:32:06.685Z,953.05
2023-05-21T00:32:18.603Z,953.05
2023-05-21T00:32:29.579Z,953.05
2023-05-21T00:32:40.634Z,953.04
2023-05-21T00:32:51.594Z,953.04
2023-05-21T00:33:03.597Z,953.03
2023-05-21T00:33:15.582Z,953.02
2023-05-21T00:33:26.618Z,953.02
2023-05-21T00:33:38.555Z,953.02
2023-05-21T00:33:49.547Z,953.01
2023-05-21T00:34:00.553Z,953.02
2023-05-21T00:34:11.623Z,953.02
2023-05-21T00:34:23.571Z,953.02
2023-05-21T00:34:34.545Z,953.02
2023-05-21T00:34:45.613Z,953.01
2023-05-21T00:34:56.580Z,953.01
2023-05-21T00:35:07.554Z,953.00
2023-05-21T00:35:18.539Z,952.99
2023-05-21T00:35:29.630Z,952.99
2023-05-21T00:35:41.605Z,952.98
2023-05-21T00:35:53.573Z,952.98
2023-05-21T00:36:04.547Z,952.98
2023-05-21T00:36:15.624Z,952.98
2023-05-21T00:36:26.524Z,952.98
2023-05-21T00:36:37.637Z,952.98
2023-05-21T00:36:49.567Z,952.98
2023-05-21T00:37:00.572Z,952.98
2023-05-21T00:37:11.546Z,952.97
2023-05-21T00:37:22.526Z,952.97
2023-05-21T00:37:33.604Z,952.96
2023-05-21T00:37:44.584Z,952.95
2023-05-21T00:37:55.567Z,952.95
2023-05-21T00:38:06.550Z,952.94
2023-05-21T00:38:17.545Z,952.94
2023-05-21T00:38:28.627Z,952.94
2023-05-21T00:38:40.580Z,952.94
2023-05-21T00:38:51.568Z,952.94
2023-05-21T00:39:02.616Z,952.94
2023-05-21T00:39:13.604Z,952.94
2023-05-21T00:39:25.557Z,952.95
2023-05-21T00:39:36.543Z,952.94
2023-05-21T00:39:47.545Z,952.94
2023-05-21T00:39:58.605Z,952.93
2023-05-21T00:40:09.607Z,952.93
2023-05-21T00:40:20.588Z,952.92
2023-05-21T00:40:31.581Z,952.91
2023-05-21T00:40:42.553Z,952.91
2023-05-21T00:40:53.535Z,952.90
2023-05-21T00:41:04.638Z,952.90
2023-05-21T00:41:16.573Z,952.90
2023-05-21T00:41:27.566Z,952.90
2023-05-21T00:41:38.546Z,952.90
2023-05-21T00:41:49.533Z,952.89
2023-05-21T00:42:00.618Z,952.89
2023-05-21T00:42:12.557Z,952.89
2023-05-21T00:42:23.535Z,952.89
2023-05-21T00:42:34.614Z,952.88
2023-05-21T00:42:46.556Z,952.87
2023-05-21T00:42:57.544Z,952.87
2023-05-21T00:43:08.545Z,952.87
2023-05-21T00:43:19.536Z,952.87
2023-05-21T00:43:30.612Z,952.87
2023-05-21T00:43:41.584Z,952.87
2023-05-21T00:43:52.577Z,952.87
2023-05-21T00:44:03.552Z,952.86
2023-05-21T00:44:14.537Z,952.86
2023-05-21T00:44:25.682Z,952.86
2023-05-21T00:44:37.552Z,952.86
2023-05-21T00:44:48.557Z,952.86
2023-05-21T00:45:00.577Z,952.86
2023-05-21T00:45:11.585Z,952.85
2023-05-21T00:45:22.586Z,952.85
2023-05-21T00:45:33.680Z,952.84
2023-05-21T00:45:44.612Z,952.84
2023-05-21T00:45:55.619Z,952.84
2023-05-21T00:46:07.611Z,952.84
2023-05-21T00:46:18.562Z,952.85
2023-05-21T00:46:29.571Z,952.85
2023-05-21T00:46:40.570Z,952.85
2023-05-21T00:46:51.548Z,952.85
2023-05-21T00:47:02.536Z,952.84
2023-05-21T00:47:13.767Z,952.83
2023-05-21T00:47:25.561Z,952.83
2023-05-21T00:47:36.593Z,952.83
2023-05-21T00:47:48.669Z,952.83
2023-05-21T00:48:00.635Z,952.83
2023-05-21T00:48:12.567Z,952.83
2023-05-21T00:48:23.560Z,952.84
2023-05-21T00:48:34.557Z,952.84
2023-05-21T00:48:45.534Z,952.84
2023-05-21T00:48:56.617Z,952.84
2023-05-21T00:49:08.554Z,952.84
2023-05-21T00:49:19.538Z,952.86
2023-05-21T00:49:30.622Z,952.87
2023-05-21T00:49:42.586Z,952.87
2023-05-21T00:49:53.575Z,952.87
2023-05-21T00:50:04.544Z,952.87
2023-05-21T00:50:15.762Z,952.87
2023-05-21T00:50:27.542Z,952.87
2023-05-21T00:50:38.606Z,952.87
2023-05-21T00:50:50.562Z,952.86
2023-05-21T00:51:01.542Z,952.86
2023-05-21T00:51:12.553Z,952.86
2023-05-21T00:51:23.541Z,952.86
2023-05-21T00:51:34.538Z,952.86
2023-05-21T00:51:45.526Z,952.86
2023-05-21T00:51:56.612Z,952.86
2023-05-21T00:52:08.561Z,952.86
2023-05-21T00:52:19.575Z,952.86
2023-05-21T00:52:30.564Z,952.85
2023-05-21T00:52:41.552Z,952.84
2023-05-21T00:52:52.581Z,952.84
2023-05-21T00:53:03.557Z,952.84
2023-05-21T00:53:14.551Z,952.84
2023-05-21T00:53:25.531Z,952.84
2023-05-21T00:53:36.611Z,952.84
2023-05-21T00:53:48.559Z,952.84
2023-05-21T00:53:59.547Z,952.85
2023-05-21T00:54:10.548Z,952.85
2023-05-21T00:54:21.623Z,952.85
2023-05-21T00:54:33.576Z,952.85
2023-05-21T00:54:44.564Z,952.85
2023-05-21T00:54:55.537Z,952.85
2023-05-21T00:55:06.615Z,952.85
2023-05-21T00:55:18.573Z,952.85
2023-05-21T00:55:29.575Z,952.84
2023-05-21T00:55:40.597Z,952.83
2023-05-21T00:55:51.593Z,952.83
2023-05-21T00:56:02.577Z,952.83
2023-05-21T00:56:13.579Z,952.83
2023-05-21T00:56:24.584Z,952.83
2023-05-21T00:56:35.577Z,952.83
2023-05-21T00:56:46.570Z,952.83
2023-05-21T00:56:57.584Z,952.82
2023-05-21T00:57:08.563Z,952.82
2023-05-21T00:57:19.542Z,952.82
2023-05-21T00:57:30.528Z,952.82
2023-05-21T00:57:41.693Z,952.82
2023-05-21T00:57:52.582Z,952.82
2023-05-21T00:58:03.553Z,952.82
2023-05-21T00:58:14.529Z,952.82
2023-05-21T00:58:25.608Z,952.82
2023-05-21T00:58:36.587Z,952.82
2023-05-21T00:58:47.567Z,952.82
2023-05-21T00:58:58.545Z,952.82
2023-05-21T00:59:09.612Z,952.82
2023-05-21T00:59:21.556Z,952.81
2023-05-21T00:59:32.530Z,952.81
2023-05-21T00:59:43.611Z,952.80
2023-05-21T00:59:55.553Z,952.81
2023-05-21T01:00:06.537Z,952.81
2023-05-21T01:00:17.619Z,952.81
2023-05-21T01:00:29.590Z,952.81
2023-05-21T01:00:40.593Z,952.80
2023-05-21T01:00:52.596Z,952.79
2023-05-21T01:01:04.600Z,952.78
2023-05-21T01:01:16.562Z,952.78
2023-05-21T01:01:27.649Z,952.77
2023-05-21T01:01:39.602Z,952.77
2023-05-21T01:01:51.623Z,952.77
2023-05-21T01:02:03.637Z,952.76
2023-05-21T01:02:14.561Z,952.76
2023-05-21T01:02:25.657Z,952.76
2023-05-21T01:02:37.771Z,952.76
2023-05-21T01:02:49.647Z,952.76
2023-05-21T01:03:00.621Z,952.75
2023-05-21T01:03:11.731Z,952.75
2023-05-21T01:03:23.787Z,952.75
2023-05-21T01:03:35.620Z,952.75
2023-05-21T01:03:47.676Z,952.75
2023-05-21T01:03:58.560Z,952.75
2023-05-21T01:04:09.549Z,952.74
2023-05-21T01:04:20.552Z,952.74
2023-05-21T01:04:31.537Z,952.74
2023-05-21T01:04:42.620Z,952.73
2023-05-21T01:04:54.567Z,952.73
2023-05-21T01:05:05.557Z,952.73
2023-05-21T01:05:16.541Z,952.73
2023-05-21T01:05:27.620Z,952.74
2023-05-21T01:05:39.565Z,952.74
2023-05-21T01:05:50.561Z,952.74
2023-05-21T01:06:01.537Z,952.74
2023-05-21T01:06:12.621Z,952.74
2023-05-21T01:06:24.567Z,952.74
2023-05-21T01:06:35.565Z,952.74
2023-05-21T01:06:46.557Z,952.74
2023-05-21T01:06:57.609Z,952.75
2023-05-21T01:07:09.548Z,952.75
2023-05-21T01:07:20.528Z,952.75
2023-05-21T01:07:31.533Z,952.74
2023-05-21T01:07:42.611Z,952.75
2023-05-21T01:07:54.554Z,952.74
2023-05-21T01:08:05.542Z,952.75
2023-05-21T01:08:16.561Z,952.74
2023-05-21T01:08:27.542Z,952.75
2023-05-21T01:08:38.518Z,952.76
2023-05-21T01:08:49.602Z,952.76
2023-05-21T01:09:02.456Z,952.76
2023-05-21T01:09:13.575Z,952.75
2023-05-21T01:09:25.560Z,952.75
2023-05-21T01:09:36.539Z,952.74
2023-05-21T01:09:47.522Z,952.74
2023-05-21T01:09:58.523Z,952.73
2023-05-21T01:10:09.605Z,952.72
2023-05-21T01:10:21.567Z,952.72
2023-05-21T01:10:32.535Z,952.72
2023-05-21T01:10:43.614Z,952.72
2023-05-21T01:10:55.579Z,952.72
2023-05-21T01:11:06.557Z,952.71
2023-05-21T01:11:17.570Z,952.71
2023-05-21T01:11:28.543Z,952.71
2023-05-21T01:11:39.525Z,952.70
2023-05-21T01:11:50.605Z,952.70
2023-05-21T01:12:02.590Z,952.70
2023-05-21T01:12:13.568Z,952.69
2023-05-21T01:12:24.557Z,952.69
2023-05-21T01:12:35.566Z,952.69
2023-05-21T01:12:46.549Z,952.69
2023-05-21T01:12:57.567Z,952.68
2023-05-21T01:13:08.594Z,952.68
2023-05-21T01:13:19.585Z,952.66
2023-05-21T01:13:30.561Z,952.66
2023-05-21T01:13:41.538Z,952.66
2023-05-21T01:13:52.626Z,952.66
2023-05-21T01:14:04.560Z,952.66
2023-05-21T01:14:15.535Z,952.66
2023-05-21T01:14:26.539Z,952.66
2023-05-21T01:14:37.593Z,952.66
2023-05-21T01:14:49.575Z,952.66
2023-05-21T01:15:00.550Z,952.66
2023-05-21T01:15:11.527Z,952.65
2023-05-21T01:15:22.622Z,952.65
2023-05-21T01:15:34.778Z,952.65
2023-05-21T01:15:46.561Z,952.64
2023-05-21T01:15:57.546Z,952.65
2023-05-21T01:16:08.644Z,952.65
2023-05-21T01:16:20.619Z,952.66
2023-05-21T01:16:32.616Z,952.66
2023-05-21T01:16:44.595Z,952.67
2023-05-21T01:16:55.626Z,952.66
2023-05-21T01:17:06.606Z,952.66
2023-05-21T01:17:17.535Z,952.66
2023-05-21T01:17:28.562Z,952.66
2023-05-21T01:17:39.642Z,952.66
2023-05-21T01:17:50.703Z,952.66
2023-05-21T01:18:02.618Z,952.66
2023-05-21T01:18:13.597Z,952.65
2023-05-21T01:18:25.621Z,952.65
2023-05-21T01:18:38.044Z,952.65
2023-05-21T01:18:48.610Z,952.65
2023-05-21T01:18:59.801Z,952.65
2023-05-21T01:19:11.664Z,952.65
2023-05-21T01:19:23.650Z,952.64
2023-05-21T01:19:34.563Z,952.64
2023-05-21T01:19:45.636Z,952.64
2023-05-21T01:19:57.591Z,952.64
2023-05-21T01:20:09.348Z,952.64
2023-05-21T01:20:19.553Z,952.64
2023-05-21T01:20:30.521Z,952.64
2023-05-21T01:20:41.520Z,952.64
2023-05-21T01:20:52.611Z,952.64
2023-05-21T01:21:04.561Z,952.64
2023-05-21T01:21:15.529Z,952.65
2023-05-21T01:21:26.606Z,952.64
2023-05-21T01:21:38.532Z,952.64
2023-05-21T01:21:49.516Z,952.64
2023-05-21T01:22:00.538Z,952.64
2023-05-21T01:22:11.614Z,952.64
2023-05-21T01:22:23.559Z,952.64
2023-05-21T01:22:34.534Z,952.64
2023-05-21T01:22:45.618Z,952.64
2023-05-21T01:22:57.566Z,952.63
2023-05-21T01:23:08.539Z,952.63
2023-05-21T01:23:19.533Z,952.63
2023-05-21T01:23:30.611Z,952.63
2023-05-21T01:23:42.545Z,952.63
2023-05-21T01:23:53.518Z,952.63
2023-05-21T01:24:04.601Z,952.63
2023-05-21T01:24:16.556Z,952.63
2023-05-21T01:24:27.576Z,952.63
2023-05-21T01:24:38.576Z,952.64
2023-05-21T01:24:49.547Z,952.64
2023-05-21T01:25:00.525Z,952.64
2023-05-21T01:25:11.590Z,952.64
2023-05-21T01:25:23.564Z,952.64
2023-05-21T01:25:34.695Z,952.64
2023-05-21T01:25:46.560Z,952.64
2023-05-21T01:25:58.570Z,952.64
2023-05-21T01:26:09.547Z,952.64
2023-05-21T01:26:20.536Z,952.64
2023-05-21T01:26:31.600Z,952.65
2023-05-21T01:26:43.554Z,952.65
2023-05-21T01:26:54.521Z,952.66
2023-05-21T01:27:05.610Z,952.66
2023-05-21T01:27:17.611Z,952.66
2023-05-21T01:27:29.586Z,952.66
2023-05-21T01:27:41.562Z,952.66
2023-05-21T01:27:52.554Z,952.65
2023-05-21T01:28:03.520Z,952.65
2023-05-21T01:28:14.605Z,952.65
2023-05-21T01:28:26.550Z,952.65
2023-05-21T01:28:37.543Z,952.65
2023-05-21T01:28:48.535Z,952.66
2023-05-21T01:28:59.531Z,952.66
2023-05-21T01:29:10.618Z,952.66
2023-05-21T01:29:22.550Z,952.65
2023-05-21T01:29:33.541Z,952.64
2023-05-21T01:29:44.525Z,952.64
2023-05-21T01:29:55.606Z,952.64
2023-05-21T01:30:07.546Z,952.63
2023-05-21T01:30:18.539Z,952.63
2023-05-21T01:30:29.524Z,952.62
2023-05-21T01:30:40.602Z,952.62
2023-05-21T01:30:52.548Z,952.62
2023-05-21T01:31:03.545Z,952.62
2023-05-21T01:31:14.523Z,952.62
2023-05-21T01:31:25.527Z,952.61
2023-05-21T01:31:36.617Z,952.61
2023-05-21T01:31:48.575Z,952.61
2023-05-21T01:31:59.587Z,952.60
2023-05-21T01:32:10.577Z,952.60
2023-05-21T01:32:21.563Z,952.61
2023-05-21T01:32:32.573Z,952.60
2023-05-21T01:32:44.647Z,952.60
2023-05-21T01:32:55.590Z,952.60
2023-05-21T01:33:06.637Z,952.59
2023-05-21T01:33:17.703Z,952.59
2023-05-21T01:33:29.720Z,952.59
2023-05-21T01:33:41.607Z,952.59
2023-05-21T01:33:52.588Z,952.59
2023-05-21T01:34:03.676Z,952.58
2023-05-21T01:34:15.610Z,952.58
2023-05-21T01:34:27.550Z,952.58
2023-05-21T01:34:38.543Z,952.58
2023-05-21T01:34:49.531Z,952.58
2023-05-21T01:35:00.515Z,952.57
2023-05-21T01:35:11.590Z,952.57
2023-05-21T01:35:22.583Z,952.57
2023-05-21T01:35:33.682Z,952.57
2023-05-21T01:35:45.564Z,952.56
2023-05-21T01:35:56.553Z,952.56
2023-05-21T01:36:08.568Z,952.56
2023-05-21T01:36:19.523Z,952.56
2023-05-21T01:36:30.617Z,952.56
2023-05-21T01:36:42.562Z,952.56
2023-05-21T01:36:53.538Z,952.56
2023-05-21T01:37:04.615Z,952.56
2023-05-21T01:37:16.552Z,952.56
2023-05-21T01:37:27.536Z,952.56
2023-05-21T01:37:38.527Z,952.55
2023-05-21T01:37:49.618Z,952.55
2023-05-21T01:38:01.553Z,952.55
2023-05-21T01:38:12.524Z,952.55
2023-05-21T01:38:23.605Z,952.55
2023-05-21T01:38:35.575Z,952.54
2023-05-21T01:38:46.563Z,952.54
2023-05-21T01:38:57.519Z,952.54
2023-05-21T01:39:08.617Z,952.54
2023-05-21T01:39:20.555Z,952.55
2023-05-21T01:39:31.531Z,952.55
2023-05-21T01:39:42.612Z,952.55
2023-05-21T01:39:54.577Z,952.54
2023-05-21T01:40:05.550Z,952.53
2023-05-21T01:40:16.545Z,952.53
2023-05-21T01:40:27.538Z,952.52
2023-05-21T01:40:38.543Z,952.52
2023-05-21T01:40:49.618Z,952.51
2023-05-21T01:41:01.562Z,952.51
2023-05-21T01:41:12.539Z,952.51
2023-05-21T01:41:23.521Z,952.51
2023-05-21T01:41:34.606Z,952.51
2023-05-21T01:41:46.571Z,952.51
2023-05-21T01:41:57.558Z,952.51
2023-05-21T01:42:08.542Z,952.50
2023-05-21T01:42:19.530Z,952.51
2023-05-21T01:42:30.603Z,952.51
2023-05-21T01:42:42.547Z,952.51
2023-05-21T01:42:53.623Z,952.51
2023-05-21T01:43:05.563Z,952.51
2023-05-21T01:43:16.563Z,952.51
2023-05-21T01:43:27.537Z,952.51
2023-05-21T01:43:38.615Z,952.52
2023-05-21T01:43:50.561Z,952.52
2023-05-21T01:44:01.541Z,952.52
2023-05-21T01:44:12.608Z,952.52
2023-05-21T01:44:24.549Z,952.53
2023-05-21T01:44:35.547Z,952.54
2023-05-21T01:44:46.543Z,952.54
2023-05-21T01:44:57.524Z,952.54
2023-05-21T01:45:08.627Z,952.55
2023-05-21T01:45:20.579Z,952.55
2023-05-21T01:45:31.559Z,952.55
2023-05-21T01:45:42.540Z,952.56
2023-05-21T01:45:53.584Z,952.56
2023-05-21T01:46:04.601Z,952.55
2023-05-21T01:46:16.592Z,952.55
2023-05-21T01:46:28.573Z,952.54
2023-05-21T01:46:39.633Z,952.55
2023-05-21T01:46:51.664Z,952.55
2023-05-21T01:47:03.589Z,952.55
2023-05-21T01:47:14.566Z,952.55
2023-05-21T01:47:25.537Z,952.55
2023-05-21T01:47:36.593Z,952.55
2023-05-21T01:47:47.673Z,952.55
2023-05-21T01:47:59.635Z,952.55
2023-05-21T01:48:11.594Z,952.55
2023-05-21T01:48:22.575Z,952.55
2023-05-21T01:48:33.544Z,952.54
2023-05-21T01:48:44.615Z,952.54
2023-05-21T01:48:56.585Z,952.54
2023-05-21T01:49:07.569Z,952.55
2023-05-21T01:49:18.566Z,952.55
2023-05-21T01:49:29.548Z,952.55
2023-05-21T01:49:40.521Z,952.55
2023-05-21T01:49:51.600Z,952.55
2023-05-21T01:50:02.592Z,952.55
2023-05-21T01:50:14.561Z,952.55
2023-05-21T01:50:25.545Z,952.56
2023-05-21T01:50:36.537Z,952.56
2023-05-21T01:50:47.625Z,952.56
2023-05-21T01:50:59.561Z,952.57
2023-05-21T01:51:10.532Z,952.56
2023-05-21T01:51:21.623Z,952.56
2023-05-21T01:51:33.574Z,952.56
2023-05-21T01:51:44.543Z,952.56
2023-05-21T01:51:55.524Z,952.56
2023-05-21T01:52:06.554Z,952.57
2023-05-21T01:52:17.567Z,952.57
2023-05-21T01:52:28.538Z,952.56
2023-05-21T01:52:39.618Z,952.57
2023-05-21T01:52:51.571Z,952.57
2023-05-21T01:53:02.548Z,952.57
2023-05-21T01:53:13.524Z,952.56
2023-05-21T01:53:24.603Z,952.56
2023-05-21T01:53:35.596Z,952.56
2023-05-21T01:53:46.582Z,952.56
2023-05-21T01:53:57.557Z,952.56
2023-05-21T01:54:08.521Z,952.56
2023-05-21T01:54:19.616Z,952.56
2023-05-21T01:54:31.554Z,952.55
2023-05-21T01:54:42.530Z,952.55
2023-05-21T01:54:53.514Z,952.55
2023-05-21T01:55:04.603Z,952.55
2023-05-21T01:55:16.598Z,952.55
2023-05-21T01:55:28.548Z,952.55
2023-05-21T01:55:39.579Z,952.55
2023-05-21T01:55:50.520Z,952.55
2023-05-21T01:56:01.643Z,952.56
2023-05-21T01:56:13.577Z,952.56
2023-05-21T01:56:24.559Z,952.56
2023-05-21T01:56:35.554Z,952.56
2023-05-21T01:56:46.527Z,952.56
2023-05-21T01:56:57.608Z,952.56
2023-05-21T01:57:09.554Z,952.56
2023-05-21T01:57:20.551Z,952.56
2023-05-21T01:57:31.526Z,952.56
2023-05-21T01:57:42.603Z,952.56
2023-05-21T01:57:54.570Z,952.56
2023-05-21T01:58:05.559Z,952.56
2023-05-21T01:58:16.544Z,952.56
2023-05-21T01:58:27.521Z,952.56
2023-05-21T01:58:38.620Z,952.56
2023-05-21T01:58:50.596Z,952.56
2023-05-21T01:59:01.580Z,952.57
2023-05-21T01:59:12.558Z,952.57
2023-05-21T01:59:23.524Z,952.56
2023-05-21T01:59:34.638Z,952.55
2023-05-21T01:59:46.582Z,952.55
2023-05-21T01:59:57.568Z,952.55
2023-05-21T02:00:08.550Z,952.55
2023-05-21T02:00:19.544Z,952.55
2023-05-21T02:00:30.544Z,952.54
2023-05-21T02:00:41.622Z,952.54
2023-05-21T02:00:53.565Z,952.54
2023-05-21T02:01:04.568Z,952.54
2023-05-21T02:01:15.556Z,952.55
2023-05-21T02:01:26.571Z,952.55
2023-05-21T02:01:37.588Z,952.55
2023-05-21T02:01:48.649Z,952.55
2023-05-21T02:01:59.573Z,952.54
2023-05-21T02:02:10.716Z,952.54
2023-05-21T02:02:22.578Z,952.54
2023-05-21T02:02:33.657Z,952.55
2023-05-21T02:02:45.631Z,952.55
2023-05-21T02:02:57.654Z,952.55
2023-05-21T02:03:08.733Z,952.55
2023-05-21T02:03:19.704Z,952.56
2023-05-21T02:03:30.587Z,952.56
2023-05-21T02:03:41.682Z,952.55
2023-05-21T02:03:52.646Z,952.54
2023-05-21T02:04:03.617Z,952.53
2023-05-21T02:04:14.539Z,952.53
2023-05-21T02:04:25.519Z,952.53
2023-05-21T02:04:36.615Z,952.53
2023-05-21T02:04:48.551Z,952.54
2023-05-21T02:04:59.565Z,952.54
2023-05-21T02:05:10.549Z,952.53
2023-05-21T02:05:21.525Z,952.53
2023-05-21T02:05:32.611Z,952.53
2023-05-21T02:05:44.561Z,952.52
2023-05-21T02:05:55.627Z,952.53
2023-05-21T02:06:06.607Z,952.53
2023-05-21T02:06:18.547Z,952.53
2023-05-21T02:06:29.626Z,952.53
2023-05-21T02:06:41.570Z,952.53
2023-05-21T02:06:52.537Z,952.54
2023-05-21T02:07:03.628Z,952.54
2023-05-21T02:07:15.561Z,952.54
2023-05-21T02:07:26.567Z,952.54
2023-05-21T02:07:37.601Z,952.54
2023-05-21T02:07:48.573Z,952.53
2023-05-21T02:07:59.560Z,952.53
2023-05-21T02:08:10.546Z,952.52
2023-05-21T02:08:21.526Z,952.52
2023-05-21T02:08:32.531Z,952.51
2023-05-21T02:08:43.623Z,952.51
2023-05-21T02:08:55.628Z,952.51
2023-05-21T02:09:06.591Z,952.51
2023-05-21T02:09:17.564Z,952.51
2023-05-21T02:09:28.553Z,952.50
2023-05-21T02:09:39.532Z,952.50
2023-05-21T02:09:50.595Z,952.50
2023-05-21T02:10:02.566Z,952.50
2023-05-21T02:10:13.553Z,952.50
2023-05-21T02:10:24.547Z,952.51
2023-05-21T02:10:35.527Z,952.50
2023-05-21T02:10:46.596Z,952.50
2023-05-21T02:10:57.598Z,952.50
2023-05-21T02:11:08.578Z,952.50
2023-05-21T02:11:19.552Z,952.50
2023-05-21T02:11:30.563Z,952.50
2023-05-21T02:11:41.547Z,952.49
2023-05-21T02:11:52.529Z,952.49
2023-05-21T02:12:03.609Z,952.48
2023-05-21T02:12:15.552Z,952.48
2023-05-21T02:12:26.541Z,952.47
2023-05-21T02:12:37.622Z,952.47
2023-05-21T02:12:49.571Z,952.47
2023-05-21T02:13:00.558Z,952.46
2023-05-21T02:13:11.537Z,952.46
2023-05-21T02:13:24.886Z,952.46
2023-05-21T02:13:33.582Z,952.46
2023-05-21T02:13:44.577Z,952.45
2023-05-21T02:13:55.574Z,952.45
2023-05-21T02:14:06.560Z,952.45
2023-05-21T02:14:17.545Z,952.45
2023-05-21T02:14:28.538Z,952.45
2023-05-21T02:14:39.632Z,952.44
2023-05-21T02:14:51.621Z,952.44
2023-05-21T02:15:03.570Z,952.44
2023-05-21T02:15:14.583Z,952.44
2023-05-21T02:15:25.579Z,952.44
2023-05-21T02:15:36.815Z,952.44
2023-05-21T02:15:47.559Z,952.44
2023-05-21T02:15:58.569Z,952.44
2023-05-21T02:16:09.611Z,952.44
2023-05-21T02:16:21.614Z,952.44
2023-05-21T02:16:32.554Z,952.43
2023-05-21T02:16:43.731Z,952.43
2023-05-21T02:16:55.577Z,952.43
2023-05-21T02:17:06.582Z,952.43
2023-05-21T02:17:17.571Z,952.43
2023-05-21T02:17:28.580Z,952.43
2023-05-21T02:17:39.590Z,952.44
2023-05-21T02:17:50.620Z,952.43
2023-05-21T02:18:02.645Z,952.42
2023-05-21T02:18:13.579Z,952.42
2023-05-21T02:18:24.619Z,952.41
2023-05-21T02:18:36.592Z,952.41
2023-05-21T02:18:47.617Z,952.41
2023-05-21T02:18:59.628Z,952.41
2023-05-21T02:19:11.674Z,952.41
2023-05-21T02:19:23.621Z,952.41
2023-05-21T02:19:34.595Z,952.41
2023-05-21T02:19:46.565Z,952.41
2023-05-21T02:19:57.545Z,952.41
2023-05-21T02:20:08.620Z,952.40
2023-05-21T02:20:20.563Z,952.41